createdAt,value
2019-03-31T00:01:16.642Z,6.70
2019-03-31T00:03:45.042Z,7.53
2019-03-31T00:06:13.431Z,4.20
2019-03-31T00:08:41.841Z,9.13
2019-03-31T00:11:10.231Z,6.20
2019-03-31T00:13:38.618Z,8.37
2019-03-31T00:16:07.032Z,6.83
2019-03-31T00:18:35.418Z,5.77
2019-03-31T00:21:03.813Z,5.90
2019-03-31T00:23:32.217Z,6.10
2019-03-31T00:26:00.600Z,7.30
2019-03-31T00:28:29.018Z,7.47
2019-03-31T00:30:57.404Z,7.57
2019-03-31T00:33:25.791Z,7.17
2019-03-31T00:35:54.208Z,6.83
2019-03-31T00:38:22.603Z,6.73
2019-03-31T00:40:50.995Z,6.77
2019-03-31T00:43:19.409Z,5.83
2019-03-31T00:45:47.797Z,7.13
2019-03-31T00:48:16.185Z,8.13
2019-03-31T00:50:44.591Z,4.20
2019-03-31T00:53:12.980Z,6.87
2019-03-31T00:55:41.377Z,7.93
2019-03-31T00:58:09.791Z,7.43
2019-03-31T01:00:48.543Z,9.17
2019-03-31T01:03:18.815Z,5.20
2019-03-31T01:05:47.683Z,7.20
2019-03-31T01:08:16.238Z,6.27
2019-03-31T01:10:45.063Z,7.63
2019-03-31T01:13:14.466Z,7.03
2019-03-31T01:15:43.024Z,5.00
2019-03-31T01:18:12.164Z,5.73
2019-03-31T01:20:40.629Z,5.97
2019-03-31T01:23:09.357Z,5.80
2019-03-31T01:25:37.840Z,8.03
2019-03-31T01:28:06.362Z,6.17
2019-03-31T01:30:34.822Z,7.93
2019-03-31T01:33:03.412Z,7.03
2019-03-31T01:35:31.940Z,6.40
2019-03-31T01:38:00.325Z,5.23
2019-03-31T01:40:28.978Z,5.77
2019-03-31T01:42:57.364Z,5.03
2019-03-31T01:45:26.035Z,4.37
2019-03-31T01:47:54.439Z,5.53
2019-03-31T01:50:23.107Z,7.00
2019-03-31T01:52:51.486Z,6.90
2019-03-31T01:55:19.896Z,6.20
2019-03-31T01:57:48.287Z,6.83
2019-03-31T02:00:35.268Z,6.37
2019-03-31T02:03:03.934Z,6.47
2019-03-31T02:05:32.326Z,4.97
2019-03-31T02:08:01.057Z,5.80
2019-03-31T02:10:29.449Z,5.60
2019-03-31T02:12:58.235Z,4.80
2019-03-31T02:15:26.702Z,5.57
2019-03-31T02:17:55.098Z,5.63
2019-03-31T02:20:23.514Z,7.53
2019-03-31T02:22:51.904Z,5.87
2019-03-31T02:25:20.571Z,9.23
2019-03-31T02:27:48.980Z,6.73
2019-03-31T02:30:17.507Z,8.30
2019-03-31T02:32:45.899Z,5.43
2019-03-31T02:35:14.498Z,6.83
2019-03-31T02:37:42.887Z,6.97
2019-03-31T02:40:11.411Z,4.97
2019-03-31T02:42:39.825Z,6.73
2019-03-31T02:45:08.548Z,3.93
2019-03-31T02:47:36.940Z,5.80
2019-03-31T02:50:07.174Z,5.53
2019-03-31T02:52:35.558Z,6.43
2019-03-31T02:55:04.402Z,8.37
2019-03-31T02:57:33.343Z,6.30
2019-03-31T03:00:02.820Z,5.40
2019-03-31T03:02:42.203Z,6.63
2019-03-31T03:05:18.881Z,6.50
2019-03-31T03:07:37.416Z,6.07
2019-03-31T03:10:06.135Z,7.00
2019-03-31T03:12:37.573Z,7.07
2019-03-31T03:15:07.514Z,7.17
2019-03-31T03:17:35.973Z,5.30
2019-03-31T03:20:05.325Z,5.13
2019-03-31T03:22:33.722Z,4.57
2019-03-31T03:25:02.172Z,5.83
2019-03-31T03:27:30.536Z,7.80
2019-03-31T03:29:58.924Z,6.57
2019-03-31T03:32:27.314Z,8.77
2019-03-31T03:34:55.743Z,10.10
2019-03-31T03:37:24.118Z,9.63
2019-03-31T03:39:52.511Z,6.30
2019-03-31T03:42:20.923Z,7.60
2019-03-31T03:44:49.310Z,8.20
2019-03-31T03:47:17.693Z,7.77
2019-03-31T03:49:46.105Z,5.53
2019-03-31T03:52:14.496Z,5.50
2019-03-31T03:54:42.886Z,6.10
2019-03-31T03:57:11.296Z,7.53
2019-03-31T03:59:39.689Z,7.93
2019-03-31T04:02:08.067Z,5.80
2019-03-31T04:04:36.477Z,5.00
2019-03-31T04:07:04.863Z,5.00
2019-03-31T04:09:33.247Z,7.63
2019-03-31T04:12:01.657Z,6.37
2019-03-31T04:14:30.045Z,6.47
2019-03-31T04:16:58.446Z,4.90
2019-03-31T04:19:26.863Z,5.03
2019-03-31T04:21:55.251Z,6.73
2019-03-31T04:24:23.635Z,9.33
2019-03-31T04:26:52.039Z,6.87
2019-03-31T04:29:20.782Z,7.57
2019-03-31T04:31:49.171Z,7.57
2019-03-31T04:34:17.588Z,7.10
2019-03-31T04:36:45.974Z,4.90
2019-03-31T04:39:14.366Z,4.70
2019-03-31T04:41:42.779Z,6.50
2019-03-31T04:44:11.183Z,7.07
2019-03-31T04:46:39.573Z,7.83
2019-03-31T04:49:07.989Z,7.67
2019-03-31T04:51:36.372Z,5.30
2019-03-31T04:54:05.127Z,5.20
2019-03-31T04:56:33.529Z,4.93
2019-03-31T04:59:01.921Z,5.20
2019-03-31T05:01:30.386Z,6.40
2019-03-31T05:04:04.977Z,5.37
2019-03-31T05:06:28.901Z,5.43
2019-03-31T05:08:57.302Z,5.47
2019-03-31T05:11:25.778Z,4.83
2019-03-31T05:13:54.189Z,4.43
2019-03-31T05:16:22.566Z,5.83
2019-03-31T05:18:50.958Z,5.47
2019-03-31T05:21:19.368Z,8.10
2019-03-31T05:23:47.751Z,6.67
2019-03-31T05:26:16.167Z,5.80
2019-03-31T05:28:44.558Z,7.80
2019-03-31T05:31:12.942Z,6.93
2019-03-31T05:33:41.345Z,6.87
2019-03-31T05:36:09.733Z,5.23
2019-03-31T05:38:38.148Z,6.07
2019-03-31T05:41:06.537Z,6.60
2019-03-31T05:43:34.935Z,7.87
2019-03-31T05:46:03.351Z,7.03
2019-03-31T05:48:31.734Z,7.43
2019-03-31T05:51:00.119Z,6.53
2019-03-31T05:53:28.540Z,7.33
2019-03-31T05:55:56.930Z,6.50
2019-03-31T05:58:25.323Z,7.17
2019-03-31T06:00:54.063Z,5.40
2019-03-31T06:03:22.444Z,5.53
2019-03-31T06:05:50.830Z,6.27
2019-03-31T06:08:19.234Z,5.73
2019-03-31T06:10:47.630Z,6.67
2019-03-31T06:13:16.024Z,6.50
2019-03-31T06:15:44.450Z,7.27
2019-03-31T06:18:12.839Z,7.83
2019-03-31T06:20:41.225Z,6.70
2019-03-31T06:23:09.963Z,9.07
2019-03-31T06:25:38.348Z,6.30
2019-03-31T06:28:06.730Z,8.30
2019-03-31T06:30:35.135Z,6.83
2019-03-31T06:33:03.551Z,8.20
2019-03-31T06:35:31.941Z,11.13
2019-03-31T06:38:00.329Z,8.43
2019-03-31T06:40:28.746Z,7.83
2019-03-31T06:42:57.204Z,8.77
2019-03-31T06:45:25.594Z,7.67
2019-03-31T06:47:54.003Z,8.17
2019-03-31T06:50:22.391Z,8.40
2019-03-31T06:52:50.784Z,7.27
2019-03-31T06:55:19.198Z,7.57
2019-03-31T06:57:47.588Z,8.83
2019-03-31T07:00:16.223Z,10.07
2019-03-31T07:02:44.635Z,7.07
2019-03-31T07:05:13.027Z,11.47
2019-03-31T07:07:41.421Z,10.53
2019-03-31T07:10:09.920Z,10.20
2019-03-31T07:12:38.303Z,9.60
2019-03-31T07:15:08.030Z,8.57
2019-03-31T07:17:36.506Z,9.23
2019-03-31T07:20:08.303Z,8.95
2019-03-31T07:22:36.694Z,10.57
2019-03-31T07:25:07.843Z,8.17
2019-03-31T07:27:36.682Z,14.27
2019-03-31T07:30:08.422Z,9.60
2019-03-31T07:32:36.960Z,7.73
2019-03-31T07:35:18.259Z,12.50
2019-03-31T07:37:47.566Z,8.83
2019-03-31T07:40:19.150Z,8.23
2019-03-31T07:42:50.881Z,10.63
2019-03-31T07:45:18.112Z,10.87
2019-03-31T07:47:46.536Z,8.80
2019-03-31T07:50:17.723Z,11.23
2019-03-31T07:52:46.119Z,11.00
2019-03-31T07:55:16.453Z,11.30
2019-03-31T07:57:45.199Z,9.73
2019-03-31T08:00:19.262Z,10.50
2019-03-31T08:02:49.208Z,14.17
2019-03-31T08:05:32.096Z,10.67
2019-03-31T08:07:48.501Z,9.17
2019-03-31T08:10:18.618Z,8.23
2019-03-31T08:12:47.008Z,9.37
2019-03-31T08:15:15.742Z,6.83
2019-03-31T08:17:44.247Z,11.43
2019-03-31T08:20:15.038Z,7.83
2019-03-31T08:22:43.438Z,9.30
2019-03-31T08:25:13.630Z,8.47
2019-03-31T08:27:42.033Z,13.43
2019-03-31T08:30:12.764Z,9.47
2019-03-31T08:32:41.661Z,10.93
2019-03-31T08:35:10.798Z,9.43
2019-03-31T08:37:39.193Z,16.27
2019-03-31T08:40:11.847Z,14.70
2019-03-31T08:42:40.238Z,16.33
2019-03-31T08:45:09.479Z,18.73
2019-03-31T08:47:38.414Z,14.07
2019-03-31T08:50:08.040Z,14.27
2019-03-31T08:52:36.437Z,9.47
2019-03-31T08:55:05.909Z,12.95
2019-03-31T08:57:34.844Z,11.93
2019-03-31T09:00:04.978Z,9.07
2019-03-31T09:02:34.741Z,12.43
2019-03-31T09:05:04.178Z,11.10
2019-03-31T09:07:32.596Z,13.10
2019-03-31T09:10:01.096Z,12.60
2019-03-31T09:12:29.496Z,11.43
2019-03-31T09:14:57.916Z,11.22
2019-03-31T09:17:26.306Z,12.37
2019-03-31T09:19:54.701Z,12.03
2019-03-31T09:22:23.138Z,13.13
2019-03-31T09:24:51.616Z,13.33
2019-03-31T09:27:20.016Z,14.57
2019-03-31T09:29:48.878Z,12.57
2019-03-31T09:32:17.274Z,14.03
2019-03-31T09:34:45.946Z,15.77
2019-03-31T09:37:14.373Z,13.03
2019-03-31T09:39:42.779Z,16.53
2019-03-31T09:42:11.177Z,15.93
2019-03-31T09:44:39.610Z,14.43
2019-03-31T09:47:08.072Z,13.07
2019-03-31T09:49:36.476Z,18.23
2019-03-31T09:52:05.137Z,14.80
2019-03-31T09:54:33.526Z,14.27
2019-03-31T09:57:01.927Z,15.30
2019-03-31T09:59:30.479Z,16.23
2019-03-31T10:01:58.887Z,16.62
2019-03-31T10:04:27.303Z,16.47
2019-03-31T10:06:56.463Z,17.23
2019-03-31T10:09:25.502Z,17.33
2019-03-31T10:11:54.150Z,15.70
2019-03-31T10:14:22.569Z,20.57
2019-03-31T10:16:50.978Z,16.90
2019-03-31T10:19:19.382Z,18.70
2019-03-31T10:21:47.806Z,17.10
2019-03-31T10:24:16.217Z,16.30
2019-03-31T10:26:44.613Z,15.93
2019-03-31T10:29:13.169Z,16.97
2019-03-31T10:31:41.567Z,16.87
2019-03-31T10:34:09.976Z,20.50
2019-03-31T10:36:44.420Z,16.40
2019-03-31T10:39:09.365Z,15.20
2019-03-31T10:41:37.774Z,16.10
2019-03-31T10:44:06.205Z,15.03
2019-03-31T10:46:34.606Z,16.80
2019-03-31T10:49:03.009Z,16.00
2019-03-31T10:51:31.451Z,13.30
2019-03-31T10:53:59.842Z,12.20
2019-03-31T10:56:28.241Z,15.63
2019-03-31T10:58:56.733Z,15.23
2019-03-31T11:01:25.131Z,13.03
2019-03-31T11:03:53.528Z,15.50
2019-03-31T11:06:22.283Z,15.10
2019-03-31T11:08:50.682Z,17.70
2019-03-31T11:11:19.151Z,19.53
2019-03-31T11:13:47.648Z,16.20
2019-03-31T11:16:16.317Z,16.23
2019-03-31T11:18:44.715Z,15.33
2019-03-31T11:21:14.766Z,17.10
2019-03-31T11:23:43.182Z,13.50
2019-03-31T11:26:11.569Z,12.17
2019-03-31T11:28:39.995Z,12.80
2019-03-31T11:31:08.387Z,12.37
2019-03-31T11:33:36.795Z,14.03
2019-03-31T11:36:05.224Z,13.67
2019-03-31T11:38:33.614Z,12.57
2019-03-31T11:41:02.040Z,12.77
2019-03-31T11:43:30.501Z,12.77
2019-03-31T11:45:58.903Z,11.43
2019-03-31T11:48:27.319Z,14.77
2019-03-31T11:50:55.719Z,10.73
2019-03-31T11:53:24.112Z,8.60
2019-03-31T11:55:52.528Z,13.63
2019-03-31T11:58:20.920Z,11.33
2019-03-31T12:00:50.963Z,11.40
2019-03-31T12:03:19.386Z,15.67
2019-03-31T12:05:47.855Z,13.23
2019-03-31T12:08:16.249Z,11.03
2019-03-31T12:10:44.681Z,11.53
2019-03-31T12:13:13.071Z,14.20
2019-03-31T12:15:41.476Z,12.23
2019-03-31T12:18:09.890Z,14.20
2019-03-31T12:20:38.291Z,13.43
2019-03-31T12:23:06.689Z,12.10
2019-03-31T12:25:35.113Z,14.63
2019-03-31T12:28:03.510Z,13.03
2019-03-31T12:30:31.907Z,9.63
2019-03-31T12:33:00.325Z,9.80
2019-03-31T12:35:28.725Z,6.25
2019-03-31T12:37:57.114Z,9.80
2019-03-31T12:40:36.268Z,10.70
2019-03-31T12:43:05.029Z,11.50
2019-03-31T12:45:33.421Z,9.00
2019-03-31T12:48:02.197Z,10.07
2019-03-31T12:50:30.661Z,12.23
2019-03-31T12:52:59.055Z,8.43
2019-03-31T12:55:27.461Z,9.37
2019-03-31T12:57:55.859Z,9.43
2019-03-31T13:00:24.252Z,10.57
2019-03-31T13:02:52.665Z,8.70
2019-03-31T13:05:21.061Z,8.83
2019-03-31T13:07:56.371Z,10.30
2019-03-31T13:10:19.607Z,11.23
2019-03-31T13:12:48.010Z,11.30
2019-03-31T13:15:16.407Z,12.63
2019-03-31T13:17:44.837Z,12.00
2019-03-31T13:20:13.673Z,13.17
2019-03-31T13:22:45.644Z,14.23
2019-03-31T13:25:13.292Z,13.00
2019-03-31T13:27:41.682Z,19.53
2019-03-31T13:30:10.758Z,44.57
2019-03-31T13:32:39.188Z,17.10
2019-03-31T13:35:08.703Z,11.75
2019-03-31T13:37:37.189Z,13.87
2019-03-31T13:40:08.924Z,14.60
2019-03-31T13:42:37.320Z,19.33
2019-03-31T13:45:06.685Z,14.53
2019-03-31T13:47:35.167Z,14.50
2019-03-31T13:50:05.346Z,15.30
2019-03-31T13:52:33.770Z,12.57
2019-03-31T13:55:02.245Z,11.63
2019-03-31T13:57:31.883Z,14.70
2019-03-31T14:00:00.997Z,10.67
2019-03-31T14:02:29.393Z,14.00
2019-03-31T14:04:57.790Z,11.00
2019-03-31T14:07:26.676Z,11.33
2019-03-31T14:09:55.083Z,11.37
2019-03-31T14:12:23.487Z,10.37
2019-03-31T14:14:51.911Z,8.90
2019-03-31T14:17:20.312Z,10.30
2019-03-31T14:19:48.771Z,8.97
2019-03-31T14:22:17.186Z,9.03
2019-03-31T14:24:45.600Z,9.10
2019-03-31T14:27:13.974Z,9.50
2019-03-31T14:29:42.735Z,9.87
2019-03-31T14:32:11.162Z,9.03
2019-03-31T14:34:39.563Z,8.53
2019-03-31T14:37:07.978Z,8.47
2019-03-31T14:39:36.378Z,8.73
2019-03-31T14:42:04.840Z,11.50
2019-03-31T14:44:33.247Z,9.10
2019-03-31T14:47:01.671Z,10.57
2019-03-31T14:49:30.062Z,9.57
2019-03-31T14:52:01.254Z,8.53
2019-03-31T14:54:28.610Z,9.57
2019-03-31T14:56:57.016Z,11.60
2019-03-31T14:59:25.411Z,11.87
2019-03-31T15:01:53.823Z,8.87
2019-03-31T15:04:22.224Z,10.80
2019-03-31T15:06:50.648Z,14.97
2019-03-31T15:09:19.046Z,14.40
2019-03-31T15:11:47.443Z,12.83
2019-03-31T15:14:16.165Z,15.27
2019-03-31T15:16:48.090Z,14.00
2019-03-31T15:19:14.719Z,14.60
2019-03-31T15:21:44.383Z,17.37
2019-03-31T15:24:12.892Z,17.80
2019-03-31T15:26:41.324Z,16.63
2019-03-31T15:29:09.720Z,17.53
2019-03-31T15:31:38.123Z,17.33
2019-03-31T15:34:06.866Z,14.43
2019-03-31T15:36:35.268Z,17.47
2019-03-31T15:39:08.955Z,19.50
2019-03-31T15:41:36.000Z,19.53
2019-03-31T15:44:04.848Z,17.67
2019-03-31T15:46:33.289Z,19.53
2019-03-31T15:49:01.689Z,19.03
2019-03-31T15:51:30.094Z,20.80
2019-03-31T15:53:58.545Z,21.80
2019-03-31T15:56:26.944Z,23.10
2019-03-31T15:58:55.339Z,25.93
2019-03-31T16:01:23.771Z,25.17
2019-03-31T16:03:52.242Z,30.00
2019-03-31T16:06:20.647Z,31.33
2019-03-31T16:08:49.073Z,48.17
2019-03-31T16:11:17.476Z,38.13
2019-03-31T16:13:45.906Z,40.33
2019-03-31T16:16:14.485Z,42.17
2019-03-31T16:18:42.896Z,49.53
2019-03-31T16:21:12.499Z,45.93
2019-03-31T16:23:40.862Z,56.60
2019-03-31T16:26:09.267Z,56.33
2019-03-31T16:28:37.697Z,49.60
2019-03-31T16:31:06.107Z,53.67
2019-03-31T16:33:34.507Z,57.77
2019-03-31T16:36:02.959Z,56.40
2019-03-31T16:38:31.338Z,60.03
2019-03-31T16:40:59.744Z,56.93
2019-03-31T16:43:28.163Z,55.40
2019-03-31T16:45:56.574Z,59.77
2019-03-31T16:48:24.974Z,60.53
2019-03-31T16:50:53.396Z,76.23
2019-03-31T16:53:21.803Z,50.20
2019-03-31T16:55:50.214Z,51.40
2019-03-31T16:58:18.639Z,48.00
2019-03-31T17:00:47.042Z,47.57
2019-03-31T17:03:18.210Z,53.10
2019-03-31T17:05:45.584Z,50.03
2019-03-31T17:08:13.978Z,56.63
2019-03-31T17:10:42.730Z,62.13
2019-03-31T17:13:11.144Z,57.67
2019-03-31T17:15:39.552Z,60.33
2019-03-31T17:18:07.967Z,66.73
2019-03-31T17:20:36.373Z,66.87
2019-03-31T17:23:04.771Z,57.63
2019-03-31T17:25:33.205Z,58.57
2019-03-31T17:28:01.597Z,52.93
2019-03-31T17:30:30.000Z,52.03
2019-03-31T17:32:58.424Z,49.87
2019-03-31T17:35:26.834Z,50.90
2019-03-31T17:37:55.248Z,54.63
2019-03-31T17:40:24.383Z,50.07
2019-03-31T17:42:52.793Z,55.63
2019-03-31T17:45:21.202Z,52.07
2019-03-31T17:47:49.623Z,52.23
2019-03-31T17:50:18.047Z,51.80
2019-03-31T17:52:46.519Z,51.13
2019-03-31T17:55:14.916Z,48.73
2019-03-31T17:57:43.348Z,51.73
2019-03-31T18:00:12.391Z,48.40
2019-03-31T18:02:41.032Z,48.33
2019-03-31T18:05:09.594Z,49.13
2019-03-31T18:07:38.053Z,45.10
2019-03-31T18:10:19.991Z,72.53
2019-03-31T18:12:38.049Z,39.50
2019-03-31T18:15:06.690Z,39.40
2019-03-31T18:17:35.097Z,45.13
2019-03-31T18:20:04.856Z,39.60
2019-03-31T18:22:33.257Z,42.07
2019-03-31T18:25:01.681Z,40.40
2019-03-31T18:27:30.092Z,37.67
2019-03-31T18:29:58.496Z,40.80
2019-03-31T18:32:26.922Z,41.47
2019-03-31T18:34:55.337Z,37.70
2019-03-31T18:37:23.743Z,72.17
2019-03-31T18:39:52.161Z,37.70
2019-03-31T18:42:20.585Z,39.07
2019-03-31T18:44:49.037Z,37.20
2019-03-31T18:47:17.426Z,38.27
2019-03-31T18:49:45.820Z,36.17
2019-03-31T18:52:14.255Z,39.43
2019-03-31T18:55:02.303Z,38.80
2019-03-31T18:57:38.110Z,34.60
2019-03-31T19:00:17.444Z,37.73
2019-03-31T19:02:50.170Z,33.40
2019-03-31T19:05:36.644Z,31.47
2019-03-31T19:08:22.682Z,32.00
2019-03-31T19:10:58.172Z,34.07
2019-03-31T19:13:54.690Z,34.03
2019-03-31T19:16:15.656Z,27.93
2019-03-31T19:18:45.695Z,35.80
2019-03-31T19:21:15.745Z,31.83
2019-03-31T19:24:05.482Z,34.27
2019-03-31T19:26:48.114Z,38.17
2019-03-31T19:29:11.909Z,35.87
2019-03-31T19:31:58.060Z,36.00
2019-03-31T19:34:36.741Z,27.77
2019-03-31T19:37:06.784Z,31.50
2019-03-31T19:39:49.071Z,32.43
2019-03-31T19:42:21.770Z,32.30
2019-03-31T19:44:54.606Z,33.50
2019-03-31T19:47:24.681Z,31.20
2019-03-31T19:49:55.144Z,35.33
2019-03-31T19:52:41.555Z,33.30
2019-03-31T19:55:26.920Z,31.70
2019-03-31T19:58:02.641Z,32.43
2019-03-31T20:00:32.679Z,35.83
2019-03-31T20:03:05.877Z,31.03
2019-03-31T20:05:53.853Z,27.10
2019-03-31T20:08:35.828Z,31.13
2019-03-31T20:11:15.129Z,30.60
2019-03-31T20:13:48.058Z,30.27
2019-03-31T20:16:18.102Z,34.40
2019-03-31T20:19:03.398Z,30.37
2019-03-31T20:21:33.428Z,34.50
2019-03-31T20:24:12.603Z,40.07
2019-03-31T20:26:48.572Z,32.63
2019-03-31T20:29:18.604Z,39.30
2019-03-31T20:31:48.674Z,41.23
2019-03-31T20:34:18.720Z,44.77
2019-03-31T20:36:54.759Z,40.10
2019-03-31T20:39:25.162Z,34.83
2019-03-31T20:42:00.701Z,37.63
2019-03-31T20:44:29.092Z,40.20
2019-03-31T20:46:57.527Z,42.87
2019-03-31T20:49:25.926Z,47.00
2019-03-31T20:51:54.329Z,38.37
2019-03-31T20:54:22.760Z,39.60
2019-03-31T20:56:51.162Z,50.53
2019-03-31T20:59:19.561Z,74.40
2019-03-31T21:01:47.980Z,47.40
2019-03-31T21:04:16.377Z,48.83
2019-03-31T21:06:44.782Z,45.37
2019-03-31T21:09:13.201Z,45.23
2019-03-31T21:11:41.602Z,46.63
2019-03-31T21:14:10.004Z,48.17
2019-03-31T21:16:38.447Z,46.50
2019-03-31T21:19:06.850Z,46.83
2019-03-31T21:21:35.243Z,53.83
2019-03-31T21:24:03.655Z,45.90
2019-03-31T21:26:32.367Z,50.67
2019-03-31T21:29:00.762Z,49.80
2019-03-31T21:31:29.339Z,49.27
2019-03-31T21:33:57.729Z,48.37
2019-03-31T21:36:26.198Z,50.33
2019-03-31T21:38:54.539Z,49.50
2019-03-31T21:41:22.942Z,50.47
2019-03-31T21:43:51.341Z,50.53
2019-03-31T21:46:19.778Z,49.27
2019-03-31T21:48:48.171Z,45.07
2019-03-31T21:51:16.571Z,44.98
2019-03-31T21:53:44.983Z,48.20
2019-03-31T21:56:13.387Z,48.10
2019-03-31T21:58:41.790Z,47.17
2019-03-31T22:01:10.308Z,50.43
2019-03-31T22:03:38.702Z,49.47
2019-03-31T22:06:07.112Z,50.57
2019-03-31T22:08:35.785Z,54.33
2019-03-31T22:11:04.194Z,45.37
2019-03-31T22:13:32.616Z,47.13
2019-03-31T22:16:01.026Z,48.17
2019-03-31T22:18:29.416Z,48.70
2019-03-31T22:20:57.848Z,46.80
2019-03-31T22:23:26.242Z,48.70
2019-03-31T22:25:54.643Z,48.10
2019-03-31T22:28:23.050Z,41.10
2019-03-31T22:30:51.451Z,42.80
2019-03-31T22:33:19.867Z,46.30
2019-03-31T22:36:06.362Z,50.53
2019-03-31T22:38:34.780Z,47.07
2019-03-31T22:41:03.171Z,47.87
2019-03-31T22:43:31.562Z,41.50
2019-03-31T22:46:00.122Z,45.20
2019-03-31T22:48:28.519Z,41.33
2019-03-31T22:50:56.922Z,41.33
2019-03-31T22:53:25.360Z,40.73
2019-03-31T22:55:53.759Z,43.50
2019-03-31T22:58:22.151Z,42.00
2019-03-31T23:00:50.850Z,42.67
2019-03-31T23:03:19.240Z,40.37
2019-03-31T23:05:47.645Z,44.77
2019-03-31T23:08:16.067Z,70.10
2019-03-31T23:10:44.735Z,39.67
2019-03-31T23:13:13.187Z,37.17
2019-03-31T23:15:41.581Z,37.23
2019-03-31T23:18:09.975Z,37.33
2019-03-31T23:20:38.396Z,34.90
2019-03-31T23:23:06.801Z,40.50
2019-03-31T23:25:35.189Z,36.40
2019-03-31T23:28:03.613Z,41.37
2019-03-31T23:30:32.011Z,39.10
2019-03-31T23:33:00.406Z,39.27
2019-03-31T23:35:28.833Z,40.10
2019-03-31T23:37:57.232Z,34.93
2019-03-31T23:40:25.625Z,39.60
2019-03-31T23:42:54.383Z,154.93
2019-03-31T23:45:22.735Z,35.20
2019-03-31T23:47:51.129Z,37.50
2019-03-31T23:50:19.555Z,32.70
2019-03-31T23:52:47.954Z,33.67
2019-03-31T23:55:16.359Z,32.13
2019-03-31T23:57:45.044Z,32.03
